createdAt,value
2023-04-04T00:00:44.045Z,99793.62
2023-04-04T00:01:46.328Z,99790.07
2023-04-04T00:02:48.629Z,99783.75
2023-04-04T00:03:51.582Z,99784.52
2023-04-04T00:04:53.789Z,99781.74
2023-04-04T00:05:56.138Z,99788.53
2023-04-04T00:06:58.171Z,99782.98
2023-04-04T00:08:00.137Z,99783.75
2023-04-04T00:09:02.085Z,99787.77
2023-04-04T00:10:06.122Z,99784.22
2023-04-04T00:11:08.195Z,99781.91
2023-04-04T00:12:10.289Z,99782.38
2023-04-04T00:13:12.544Z,99780.84
2023-04-04T00:14:15.561Z,99780.08
2023-04-04T00:15:19.109Z,99781.31
2023-04-04T00:16:21.940Z,99778.23
2023-04-04T00:17:24.224Z,99775.93
2023-04-04T00:18:26.159Z,99785.80
2023-04-04T00:19:28.125Z,99778.70
2023-04-04T00:20:30.955Z,99775.16
2023-04-04T00:21:32.878Z,99773.92
2023-04-04T00:22:34.791Z,99779.95
2023-04-04T00:23:36.682Z,99775.16
2023-04-04T00:24:38.990Z,99770.11
2023-04-04T00:25:41.401Z,99777.67
2023-04-04T00:26:44.833Z,99761.48
2023-04-04T00:27:49.589Z,99776.59
2023-04-04T00:28:52.283Z,99765.49
2023-04-04T00:29:55.387Z,99767.50
2023-04-04T00:30:57.402Z,99767.50
2023-04-04T00:31:59.781Z,99773.05
2023-04-04T00:33:01.768Z,99772.28
2023-04-04T00:34:04.282Z,99773.52
2023-04-04T00:35:07.843Z,99767.97
2023-04-04T00:36:10.031Z,99768.44
2023-04-04T00:37:12.206Z,99773.98
2023-04-04T00:38:15.278Z,99771.22
2023-04-04T00:39:17.288Z,99771.22
2023-04-04T00:40:19.537Z,99769.20
2023-04-04T00:41:21.488Z,99768.44
2023-04-04T00:42:23.432Z,99772.75
2023-04-04T00:43:26.911Z,99773.52
2023-04-04T00:44:28.913Z,99772.75
2023-04-04T00:45:30.983Z,99777.06
2023-04-04T00:46:33.141Z,99771.98
2023-04-04T00:47:35.107Z,99780.01
2023-04-04T00:48:37.228Z,99781.25
2023-04-04T00:49:39.516Z,99779.24
2023-04-04T00:50:41.881Z,99784.49
2023-04-04T00:51:44.303Z,99788.80
2023-04-04T00:52:46.301Z,99789.27
2023-04-04T00:53:50.720Z,99785.73
2023-04-04T00:54:55.118Z,99787.73
2023-04-04T00:55:57.272Z,99792.52
2023-04-04T00:57:01.392Z,99791.75
2023-04-04T00:58:03.358Z,99790.98
2023-04-04T00:59:06.032Z,99782.19
2023-04-04T01:00:10.956Z,99790.52
2023-04-04T01:01:13.067Z,99786.97
2023-04-04T01:02:15.090Z,99783.42
2023-04-04T01:03:17.972Z,99784.19
2023-04-04T01:04:19.980Z,99777.88
2023-04-04T01:05:22.065Z,99774.63
2023-04-04T01:06:24.386Z,99780.18
2023-04-04T01:07:26.849Z,99767.53
2023-04-04T01:08:29.376Z,99775.86
2023-04-04T01:09:31.331Z,99771.08
2023-04-04T01:10:33.678Z,99771.08
2023-04-04T01:11:35.860Z,99773.09
2023-04-04T01:12:39.259Z,99768.77
2023-04-04T01:13:41.772Z,99768.01
2023-04-04T01:14:44.523Z,99770.78
2023-04-04T01:15:47.292Z,99769.55
2023-04-04T01:16:49.863Z,99773.56
2023-04-04T01:17:52.706Z,99768.01
2023-04-04T01:18:54.994Z,99778.34
2023-04-04T01:20:06.207Z,99772.02
2023-04-04T01:21:13.543Z,99773.26
2023-04-04T01:22:16.245Z,99775.27
2023-04-04T01:23:19.759Z,99767.70
2023-04-04T01:24:22.200Z,99771.25
2023-04-04T01:25:32.688Z,99767.70
2023-04-04T01:26:36.686Z,99766.94
2023-04-04T01:27:39.688Z,99766.94
2023-04-04T01:28:43.579Z,99768.94
2023-04-04T01:29:49.258Z,99774.49
2023-04-04T01:30:51.746Z,99775.27
2023-04-04T01:32:06.627Z,99775.27
2023-04-04T01:33:24.305Z,99779.58
2023-04-04T01:34:30.919Z,99774.80
2023-04-04T01:35:54.963Z,99771.72
2023-04-04T01:37:12.753Z,99775.27
2023-04-04T01:38:21.912Z,99774.03
2023-04-04T01:40:40.184Z,99771.98
2023-04-04T01:41:43.065Z,99781.58
2023-04-04T01:42:45.816Z,99775.27
2023-04-04T01:43:48.592Z,99780.81
2023-04-04T01:44:56.540Z,99783.59
2023-04-04T01:46:00.451Z,99784.36
2023-04-04T01:47:05.532Z,99784.36
2023-04-04T01:48:08.073Z,99789.91
2023-04-04T01:49:11.301Z,99789.91
2023-04-04T01:50:15.035Z,99789.91
2023-04-04T01:51:18.139Z,99797.47
2023-04-04T01:52:20.822Z,99800.23
2023-04-04T01:53:22.863Z,99798.23
2023-04-04T01:54:24.936Z,99796.70
2023-04-04T01:55:26.991Z,99792.69
2023-04-04T01:56:29.240Z,99797.77
2023-04-04T01:57:31.574Z,99793.75
2023-04-04T01:58:34.210Z,99793.75
2023-04-04T01:59:36.252Z,99794.52
2023-04-04T02:00:38.874Z,99800.55
2023-04-04T02:01:41.404Z,99805.33
2023-04-04T02:02:44.280Z,99804.55
2023-04-04T02:03:46.453Z,99795.92
2023-04-04T02:04:48.628Z,99792.38
2023-04-04T02:05:50.769Z,99800.70
2023-04-04T02:06:54.096Z,99799.94
2023-04-04T02:07:56.204Z,99798.43
2023-04-04T02:09:00.514Z,99799.67
2023-04-04T02:10:04.277Z,99795.16
2023-04-04T02:11:06.376Z,99799.94
2023-04-04T02:12:08.474Z,99793.92
2023-04-04T02:13:10.517Z,99796.70
2023-04-04T02:14:13.102Z,99803.02
2023-04-04T02:15:15.593Z,99795.45
2023-04-04T02:16:17.782Z,99799.00
2023-04-04T02:17:19.808Z,99792.69
2023-04-04T02:18:21.860Z,99803.79
2023-04-04T02:19:23.915Z,99799.47
2023-04-04T02:20:26.799Z,99800.23
2023-04-04T02:21:29.463Z,99798.70
2023-04-04T02:22:31.998Z,99789.61
2023-04-04T02:23:33.944Z,99796.42
2023-04-04T02:24:36.823Z,99793.65
2023-04-04T02:25:38.747Z,99786.56
2023-04-04T02:26:41.451Z,99785.79
2023-04-04T02:27:43.739Z,99785.79
2023-04-04T02:28:45.665Z,99787.33
2023-04-04T02:29:48.092Z,99789.34
2023-04-04T02:30:50.039Z,99785.02
2023-04-04T02:31:53.411Z,99788.56
2023-04-04T02:32:59.294Z,99784.55
2023-04-04T02:34:01.703Z,99782.55
2023-04-04T02:35:05.283Z,99771.45
2023-04-04T02:36:09.147Z,99784.55
2023-04-04T02:37:11.324Z,99783.28
2023-04-04T02:38:13.573Z,99779.77
2023-04-04T02:39:18.050Z,99785.33
2023-04-04T02:40:20.322Z,99777.00
2023-04-04T02:41:23.029Z,99776.23
2023-04-04T02:42:25.037Z,99783.78
2023-04-04T02:43:27.498Z,99781.78
2023-04-04T02:44:30.162Z,99777.00
2023-04-04T02:45:32.506Z,99778.23
2023-04-04T02:46:36.557Z,99769.91
2023-04-04T02:47:41.563Z,99763.59
2023-04-04T02:48:45.447Z,99762.35
2023-04-04T02:49:48.039Z,99763.59
2023-04-04T02:50:50.794Z,99763.86
2023-04-04T02:51:52.731Z,99762.35
2023-04-04T02:53:02.258Z,99756.03
2023-04-04T02:54:06.108Z,99756.80
2023-04-04T02:55:10.154Z,99754.03
2023-04-04T02:56:13.957Z,99758.04
2023-04-04T02:57:15.918Z,99758.31
2023-04-04T02:58:20.216Z,99751.25
2023-04-04T02:59:23.100Z,99747.70
2023-04-04T03:00:25.135Z,99752.48
2023-04-04T03:01:27.244Z,99745.70
2023-04-04T03:02:29.589Z,99749.25
2023-04-04T03:03:32.159Z,99744.16
2023-04-04T03:04:34.377Z,99746.94
2023-04-04T03:05:36.763Z,99747.41
2023-04-04T03:06:39.566Z,99752.95
2023-04-04T03:07:41.630Z,99749.41
2023-04-04T03:08:43.698Z,99746.64
2023-04-04T03:09:45.745Z,99754.96
2023-04-04T03:10:47.895Z,99752.19
2023-04-04T03:11:49.960Z,99756.50
2023-04-04T03:12:52.139Z,99756.97
2023-04-04T03:13:54.181Z,99753.42
2023-04-04T03:14:58.075Z,99762.52
2023-04-04T03:16:04.936Z,99769.61
2023-04-04T03:17:09.402Z,99773.16
2023-04-04T03:18:11.448Z,99775.16
2023-04-04T03:19:15.355Z,99770.38
2023-04-04T03:20:17.748Z,99782.25
2023-04-04T03:21:19.816Z,99784.25
2023-04-04T03:22:22.373Z,99786.26
2023-04-04T03:23:25.619Z,99787.03
2023-04-04T03:24:27.674Z,99788.27
2023-04-04T03:25:29.723Z,99783.95
2023-04-04T03:26:31.982Z,99784.72
2023-04-04T03:27:34.025Z,99784.72
2023-04-04T03:28:36.001Z,99790.27
2023-04-04T03:29:38.464Z,99784.72
2023-04-04T03:30:41.945Z,99788.27
2023-04-04T03:31:44.519Z,99789.50
2023-04-04T03:32:46.872Z,99795.05
2023-04-04T03:33:48.864Z,99797.05
2023-04-04T03:34:51.018Z,99790.44
2023-04-04T03:35:53.089Z,99794.75
2023-04-04T03:36:56.148Z,99801.06
2023-04-04T03:38:03.297Z,99792.44
2023-04-04T03:39:05.392Z,99798.77
2023-04-04T03:40:08.878Z,99793.20
2023-04-04T03:41:11.000Z,99808.63
2023-04-04T03:42:12.951Z,99803.84
2023-04-04T03:43:14.906Z,99809.09
2023-04-04T03:44:16.854Z,99807.09
2023-04-04T03:45:19.430Z,99808.63
2023-04-04T03:46:21.636Z,99814.94
2023-04-04T03:47:24.699Z,99814.94
2023-04-04T03:48:27.285Z,99811.40
2023-04-04T03:49:29.266Z,99812.94
2023-04-04T03:50:32.302Z,99816.95
2023-04-04T03:51:36.293Z,99810.16
2023-04-04T03:52:39.200Z,99803.84
2023-04-04T03:53:41.593Z,99804.61
2023-04-04T03:54:44.714Z,99799.83
2023-04-04T03:55:46.724Z,99806.92
2023-04-04T03:56:49.074Z,99799.83
2023-04-04T03:57:51.436Z,99798.59
2023-04-04T03:58:55.408Z,99799.06
2023-04-04T03:59:58.218Z,99800.30
2023-04-04T04:01:00.391Z,99791.97
2023-04-04T04:02:03.029Z,99800.30
2023-04-04T04:03:05.172Z,99804.77
2023-04-04T04:04:07.597Z,99809.55
2023-04-04T04:05:09.810Z,99815.11
2023-04-04T04:06:12.174Z,99821.13
2023-04-04T04:07:14.101Z,99815.57
2023-04-04T04:08:17.288Z,99814.80
2023-04-04T04:09:19.267Z,99817.58
2023-04-04T04:10:21.316Z,99818.34
2023-04-04T04:11:23.782Z,99819.89
2023-04-04T04:12:25.983Z,99811.56
2023-04-04T04:13:28.036Z,99813.10
2023-04-04T04:14:30.483Z,99816.64
2023-04-04T04:15:32.577Z,99814.34
2023-04-04T04:16:40.496Z,99822.66
2023-04-04T04:17:42.924Z,99816.34
2023-04-04T04:18:45.806Z,99823.13
2023-04-04T04:19:49.712Z,99821.89
2023-04-04T04:20:57.754Z,99821.13
2023-04-04T04:21:59.854Z,99827.91
2023-04-04T04:23:03.913Z,99827.14
2023-04-04T04:24:08.141Z,99829.14
2023-04-04T04:25:10.213Z,99837.93
2023-04-04T04:26:14.499Z,99836.39
2023-04-04T04:27:16.628Z,99834.08
2023-04-04T04:28:18.989Z,99833.80
2023-04-04T04:29:21.881Z,99827.48
2023-04-04T04:30:24.370Z,99835.05
2023-04-04T04:31:26.555Z,99836.28
2023-04-04T04:32:29.205Z,99833.50
2023-04-04T04:33:31.781Z,99829.96
2023-04-04T04:34:36.019Z,99831.50
2023-04-04T04:35:38.996Z,99832.73
2023-04-04T04:36:41.604Z,99836.28
2023-04-04T04:37:45.506Z,99836.28
2023-04-04T04:38:47.975Z,99837.81
2023-04-04T04:39:50.511Z,99844.14
2023-04-04T04:40:54.814Z,99839.82
2023-04-04T04:41:58.735Z,99842.13
2023-04-04T04:43:01.836Z,99837.32
2023-04-04T04:44:04.669Z,99840.87
2023-04-04T04:45:08.788Z,99846.14
2023-04-04T04:46:11.500Z,99843.83
2023-04-04T04:47:14.508Z,99833.20
2023-04-04T04:48:17.698Z,99843.06
2023-04-04T04:49:21.655Z,99843.53
2023-04-04T04:50:24.655Z,99849.08
2023-04-04T04:51:27.122Z,99855.86
2023-04-04T04:52:29.603Z,99853.08
2023-04-04T04:53:32.644Z,99852.31
2023-04-04T04:54:35.071Z,99848.77
2023-04-04T04:55:37.044Z,99846.45
2023-04-04T04:56:41.246Z,99852.77
2023-04-04T04:57:47.249Z,99854.78
2023-04-04T04:58:52.349Z,99850.77
2023-04-04T04:59:56.179Z,99848.46
2023-04-04T05:01:01.242Z,99852.00
2023-04-04T05:02:05.184Z,99853.24
2023-04-04T05:03:09.116Z,99853.24
2023-04-04T05:04:13.136Z,99853.24
2023-04-04T05:05:17.038Z,99854.02
2023-04-04T05:06:20.142Z,99846.92
2023-04-04T05:07:22.603Z,99842.14
2023-04-04T05:08:25.705Z,99849.70
2023-04-04T05:09:33.047Z,99844.92
2023-04-04T05:10:36.579Z,99844.92
2023-04-04T05:11:39.263Z,99842.91
2023-04-04T05:12:43.666Z,99848.46
2023-04-04T05:13:47.558Z,99851.70
2023-04-04T05:14:49.893Z,99846.16
2023-04-04T05:15:52.282Z,99848.92
2023-04-04T05:16:56.377Z,99848.16
2023-04-04T05:18:00.502Z,99854.48
2023-04-04T05:19:02.960Z,99846.16
2023-04-04T05:20:10.107Z,99841.37
2023-04-04T05:21:12.466Z,99846.16
2023-04-04T05:22:15.049Z,99842.14
2023-04-04T05:23:22.543Z,99848.92
2023-04-04T05:24:25.042Z,99839.06
2023-04-04T05:25:27.118Z,99841.53
2023-04-04T05:26:29.746Z,99843.53
2023-04-04T05:27:31.700Z,99839.22
2023-04-04T05:28:35.103Z,99839.22
2023-04-04T05:29:38.991Z,99838.91
2023-04-04T05:30:42.975Z,99840.15
2023-04-04T05:31:47.235Z,99839.38
2023-04-04T05:32:51.754Z,99841.38
2023-04-04T05:33:56.544Z,99844.92
2023-04-04T05:35:05.266Z,99844.16
2023-04-04T05:36:09.420Z,99842.16
2023-04-04T05:37:13.298Z,99847.23
2023-04-04T05:38:17.033Z,99852.33
2023-04-04T05:39:19.883Z,99844.00
2023-04-04T05:40:23.789Z,99845.54
2023-04-04T05:41:27.977Z,99858.17
2023-04-04T05:42:31.871Z,99854.17
2023-04-04T05:43:34.223Z,99868.04
2023-04-04T05:44:38.769Z,99869.27
2023-04-04T05:45:42.099Z,99874.05
2023-04-04T05:46:45.068Z,99866.50
2023-04-04T05:47:47.932Z,99857.41
2023-04-04T05:48:50.814Z,99847.08
2023-04-04T05:49:53.142Z,99839.53
2023-04-04T05:50:55.411Z,99831.20
2023-04-04T05:51:59.289Z,99822.89
2023-04-04T05:53:01.940Z,99818.11
2023-04-04T05:54:04.012Z,99826.43
2023-04-04T05:55:08.586Z,99832.28
2023-04-04T05:56:11.606Z,99848.46
2023-04-04T05:57:13.677Z,99842.45
2023-04-04T05:58:21.473Z,99855.09
2023-04-04T05:59:25.411Z,99863.41
2023-04-04T06:00:29.952Z,99859.41
2023-04-04T06:01:34.364Z,99870.03
2023-04-04T06:02:38.896Z,99872.81
2023-04-04T06:03:41.325Z,99871.58
2023-04-04T06:04:45.506Z,99875.12
2023-04-04T06:05:51.667Z,99878.66
2023-04-04T06:06:53.832Z,99877.89
2023-04-04T06:07:56.202Z,99875.12
2023-04-04T06:08:58.171Z,99874.34
2023-04-04T06:10:00.199Z,99879.13
2023-04-04T06:11:02.649Z,99879.90
2023-04-04T06:12:06.019Z,99886.22
2023-04-04T06:13:09.017Z,99888.99
2023-04-04T06:14:13.294Z,99886.22
2023-04-04T06:15:16.445Z,99883.44
2023-04-04T06:16:18.934Z,99893.31
2023-04-04T06:17:21.217Z,99894.08
2023-04-04T06:18:24.587Z,99893.31
2023-04-04T06:19:26.716Z,99890.53
2023-04-04T06:20:28.864Z,99894.84
2023-04-04T06:21:30.823Z,99890.53
2023-04-04T06:22:33.344Z,99889.30
2023-04-04T06:23:35.395Z,99886.52
2023-04-04T06:24:37.611Z,99884.98
2023-04-04T06:25:40.788Z,99884.98
2023-04-04T06:26:43.060Z,99887.76
2023-04-04T06:27:45.100Z,99885.45
2023-04-04T06:29:58.477Z,99886.17
2023-04-04T06:31:00.836Z,99887.45
2023-04-04T06:32:05.143Z,99890.99
2023-04-04T06:33:09.037Z,99886.98
2023-04-04T06:34:13.946Z,99888.53
2023-04-04T06:35:20.331Z,99891.30
2023-04-04T06:36:24.690Z,99888.53
2023-04-04T06:37:27.748Z,99890.81
2023-04-04T06:38:31.631Z,99888.53
2023-04-04T06:39:35.511Z,99889.30
2023-04-04T06:40:39.838Z,99890.53
2023-04-04T06:41:42.580Z,99891.30
2023-04-04T06:44:00.307Z,99882.48
2023-04-04T06:45:03.095Z,99889.30
2023-04-04T06:46:05.563Z,99884.49
2023-04-04T06:47:07.561Z,99881.72
2023-04-04T06:48:09.502Z,99894.84
2023-04-04T06:49:12.807Z,99886.98
2023-04-04T06:50:18.012Z,99884.67
2023-04-04T06:51:21.900Z,99887.91
2023-04-04T06:52:24.977Z,99887.14
2023-04-04T06:53:28.109Z,99886.37
2023-04-04T06:54:30.098Z,99883.91
2023-04-04T06:55:34.057Z,99885.91
2023-04-04T06:56:38.334Z,99888.99
2023-04-04T06:57:41.491Z,99886.22
2023-04-04T06:58:43.497Z,99892.53
2023-04-04T06:59:46.027Z,99889.30
2023-04-04T07:00:48.508Z,99889.30
2023-04-04T07:01:51.058Z,99880.98
2023-04-04T07:02:57.441Z,99885.27
2023-04-04T07:03:59.522Z,99879.71
2023-04-04T07:05:02.532Z,99882.02
2023-04-04T07:06:06.448Z,99882.79
2023-04-04T07:07:08.628Z,99876.47
2023-04-04T07:08:10.578Z,99869.88
2023-04-04T07:09:25.835Z,99878.20
2023-04-04T07:10:18.542Z,99878.20
2023-04-04T07:11:20.923Z,99878.20
2023-04-04T07:12:22.833Z,99872.65
2023-04-04T07:13:24.649Z,99881.72
2023-04-04T07:14:26.531Z,99882.02
2023-04-04T07:15:28.430Z,99881.72
2023-04-04T07:16:31.141Z,99876.94
2023-04-04T07:17:37.487Z,99880.20
2023-04-04T07:18:39.778Z,99873.88
2023-04-04T07:19:41.710Z,99883.75
2023-04-04T07:20:45.893Z,99876.66
2023-04-04T07:21:47.991Z,99875.42
2023-04-04T07:22:49.969Z,99886.22
2023-04-04T07:23:51.957Z,99884.67
2023-04-04T07:24:54.997Z,99883.14
2023-04-04T07:25:57.601Z,99881.59
2023-04-04T07:27:00.358Z,99900.25
2023-04-04T07:28:11.670Z,99885.61
2023-04-04T07:29:06.370Z,99884.06
2023-04-04T07:30:10.850Z,99893.62
2023-04-04T07:31:12.871Z,99892.39
2023-04-04T07:32:14.860Z,99893.16
2023-04-04T07:33:16.909Z,99895.00
2023-04-04T07:34:19.471Z,99890.99
2023-04-04T07:35:21.402Z,99891.77
2023-04-04T07:36:24.265Z,99893.58
2023-04-04T07:37:26.224Z,99895.13
2023-04-04T07:38:28.497Z,99899.44
2023-04-04T07:39:31.090Z,99889.58
2023-04-04T07:40:33.540Z,99894.66
2023-04-04T07:41:35.495Z,99894.66
2023-04-04T07:43:51.684Z,99898.50
2023-04-04T07:44:53.626Z,99896.20
2023-04-04T07:45:55.725Z,99894.20
2023-04-04T07:47:08.741Z,99890.66
2023-04-04T07:48:01.866Z,99898.52
2023-04-04T07:49:03.889Z,99898.52
2023-04-04T07:50:07.716Z,99900.83
2023-04-04T07:51:10.776Z,99898.05
2023-04-04T07:52:13.305Z,99911.92
2023-04-04T07:53:15.242Z,99902.36
2023-04-04T07:54:17.202Z,99902.83
2023-04-04T07:55:20.340Z,99899.28
2023-04-04T07:56:22.734Z,99903.59
2023-04-04T07:57:24.799Z,99908.38
2023-04-04T07:58:26.840Z,99903.29
2023-04-04T07:59:28.835Z,99913.62
2023-04-04T08:00:30.974Z,99913.62
2023-04-04T08:01:32.962Z,99914.85
2023-04-04T08:03:47.152Z,99911.61
2023-04-04T08:04:49.915Z,99916.86
2023-04-04T08:05:52.614Z,99912.55
2023-04-04T08:06:54.981Z,99910.54
2023-04-04T08:07:56.931Z,99906.99
2023-04-04T08:08:59.414Z,99910.54
2023-04-04T08:10:01.767Z,99912.08
2023-04-04T08:11:03.830Z,99901.75
2023-04-04T08:12:06.697Z,99905.76
2023-04-04T08:13:09.687Z,99899.44
2023-04-04T08:14:11.720Z,99912.08
2023-04-04T08:15:13.650Z,99911.31
2023-04-04T08:16:15.999Z,99911.31
2023-04-04T08:17:18.841Z,99909.30
2023-04-04T08:18:21.811Z,99908.84
2023-04-04T08:19:24.893Z,99915.16
2023-04-04T08:20:27.359Z,99912.39
2023-04-04T08:21:30.192Z,99915.47
2023-04-04T08:22:32.188Z,99907.14
2023-04-04T08:23:34.122Z,99903.13
2023-04-04T08:24:36.183Z,99904.67
2023-04-04T08:25:38.117Z,99908.99
2023-04-04T08:26:42.317Z,99904.21
2023-04-04T08:27:45.138Z,99905.75
2023-04-04T08:28:47.983Z,99909.30
2023-04-04T08:29:50.131Z,99906.98
2023-04-04T08:30:53.552Z,99908.99
2023-04-04T08:31:55.552Z,99903.13
2023-04-04T08:32:57.546Z,99910.22
2023-04-04T08:34:00.716Z,99905.44
2023-04-04T08:35:04.334Z,99904.21
2023-04-04T08:36:08.405Z,99898.20
2023-04-04T08:37:10.468Z,99905.28
2023-04-04T08:38:12.433Z,99902.05
2023-04-04T08:39:14.382Z,99900.04
2023-04-04T08:40:18.546Z,99905.90
2023-04-04T08:41:21.571Z,99905.41
2023-04-04T08:42:24.385Z,99906.17
2023-04-04T08:43:26.387Z,99897.84
2023-04-04T08:44:28.340Z,99903.70
2023-04-04T08:45:30.307Z,99907.25
2023-04-04T08:46:32.395Z,99906.02
2023-04-04T08:47:34.855Z,99906.78
2023-04-04T08:48:36.860Z,99900.47
2023-04-04T08:49:42.530Z,99904.01
2023-04-04T08:50:44.635Z,99908.33
2023-04-04T08:51:46.708Z,99907.86
2023-04-04T08:52:48.656Z,99904.63
2023-04-04T08:53:50.624Z,99910.47
2023-04-04T08:54:53.146Z,99911.25
2023-04-04T08:55:55.213Z,99913.56
2023-04-04T08:56:57.473Z,99908.00
2023-04-04T08:57:59.459Z,99912.32
2023-04-04T08:59:01.580Z,99912.32
2023-04-04T09:00:05.990Z,99916.64
2023-04-04T09:01:08.275Z,99914.63
2023-04-04T09:02:24.170Z,99909.08
2023-04-04T09:03:27.549Z,99914.63
2023-04-04T09:04:29.745Z,99910.63
2023-04-04T09:05:32.100Z,99905.84
2023-04-04T09:06:35.827Z,99917.25
2023-04-04T09:07:39.489Z,99906.14
2023-04-04T09:08:41.961Z,99911.20
2023-04-04T09:09:44.632Z,99909.96
2023-04-04T09:10:47.122Z,99909.96
2023-04-04T09:11:49.670Z,99917.05
2023-04-04T09:12:55.482Z,99916.59
2023-04-04T09:13:56.568Z,99922.91
2023-04-04T09:15:00.605Z,99925.69
2023-04-04T09:16:03.293Z,99919.67
2023-04-04T09:17:06.445Z,99927.23
2023-04-04T09:18:08.569Z,99935.86
2023-04-04T09:19:10.485Z,99935.40
2023-04-04T09:20:41.810Z,99932.63
2023-04-04T09:21:48.434Z,99928.61
2023-04-04T09:22:50.991Z,99927.38
2023-04-04T09:25:10.475Z,99924.11
2023-04-04T09:26:13.283Z,99929.38
2023-04-04T09:27:15.448Z,99927.06
2023-04-04T09:28:18.512Z,99929.08
2023-04-04T09:29:21.006Z,99929.08
2023-04-04T09:30:24.550Z,99929.84
2023-04-04T09:31:27.754Z,99933.86
2023-04-04T09:32:29.960Z,99935.40
2023-04-04T09:33:32.058Z,99931.39
2023-04-04T09:34:34.473Z,99936.94
2023-04-04T09:35:42.009Z,99933.70
2023-04-04T09:36:45.351Z,99938.78
2023-04-04T09:37:47.920Z,99940.33
2023-04-04T09:38:51.254Z,99937.55
2023-04-04T09:39:53.454Z,99938.31
2023-04-04T09:40:56.203Z,99939.09
2023-04-04T09:41:58.454Z,99939.39
2023-04-04T09:43:01.874Z,99932.60
2023-04-04T09:44:04.755Z,99932.60
2023-04-04T09:45:08.371Z,99933.34
2023-04-04T09:46:10.788Z,99933.34
2023-04-04T09:47:31.067Z,99935.38
2023-04-04T09:48:31.691Z,99929.82
2023-04-04T09:49:34.570Z,99932.60
2023-04-04T09:50:38.005Z,99925.01
2023-04-04T09:51:40.258Z,99925.01
2023-04-04T09:52:42.842Z,99925.01
2023-04-04T09:53:47.161Z,99924.27
2023-04-04T09:55:00.109Z,99927.78
2023-04-04T09:56:02.374Z,99935.38
2023-04-04T09:57:04.326Z,99932.60
2023-04-04T09:59:28.424Z,99934.28
2023-04-04T10:00:31.594Z,99926.91
2023-04-04T10:01:33.749Z,99923.36
2023-04-04T10:02:40.193Z,99926.14
2023-04-04T10:03:42.345Z,99922.13
2023-04-04T10:04:45.746Z,99927.21
2023-04-04T10:06:06.798Z,99920.11
2023-04-04T10:07:12.816Z,99927.98
2023-04-04T10:09:26.670Z,99920.09
2023-04-04T10:11:39.252Z,99923.64
2023-04-04T10:12:42.962Z,99929.69
2023-04-04T10:13:44.972Z,99927.21
2023-04-04T10:14:47.262Z,99924.44
2023-04-04T10:15:49.238Z,99923.97
2023-04-04T10:16:51.431Z,99925.51
2023-04-04T10:17:53.409Z,99930.56
2023-04-04T10:18:55.536Z,99922.23
2023-04-04T10:22:12.098Z,99926.41
2023-04-04T10:23:14.039Z,99923.64
2023-04-04T10:24:15.993Z,99923.94
2023-04-04T10:25:18.168Z,99927.48
2023-04-04T10:26:20.394Z,99923.47
2023-04-04T10:27:22.350Z,99920.23
2023-04-04T10:28:26.378Z,99924.55
2023-04-04T10:29:29.529Z,99917.75
2023-04-04T10:30:34.081Z,99925.15
2023-04-04T10:31:37.980Z,99923.14
2023-04-04T10:32:46.904Z,99923.14
2023-04-04T10:34:21.441Z,99906.78
2023-04-04T10:35:23.844Z,99919.70
2023-04-04T10:36:29.547Z,99915.22
2023-04-04T10:37:34.331Z,99909.19
2023-04-04T10:38:43.878Z,99913.51
2023-04-04T10:41:17.423Z,99914.81
2023-04-04T10:42:19.278Z,99913.34
2023-04-04T10:43:24.048Z,99914.11
2023-04-04T10:44:39.099Z,99910.86
2023-04-04T10:45:41.807Z,99915.18
2023-04-04T10:46:46.228Z,99912.70
2023-04-04T10:47:48.415Z,99909.45
2023-04-04T10:48:51.513Z,99910.99
2023-04-04T10:49:54.604Z,99906.20
2023-04-04T10:50:56.876Z,99911.77
2023-04-04T10:51:58.849Z,99910.52
2023-04-04T10:53:01.317Z,99910.52
2023-04-04T10:54:03.741Z,99903.70
2023-04-04T10:55:07.843Z,99908.78
2023-04-04T10:56:10.463Z,99908.31
2023-04-04T10:57:12.831Z,99905.84
2023-04-04T10:58:16.288Z,99911.69
2023-04-04T10:59:18.799Z,99915.23
2023-04-04T11:00:25.216Z,99910.45
2023-04-04T11:02:59.152Z,99904.94
2023-04-04T11:05:36.571Z,99908.02
2023-04-04T11:07:06.645Z,99902.54
2023-04-04T11:08:10.160Z,99910.11
2023-04-04T11:09:12.089Z,99909.34
2023-04-04T11:10:15.835Z,99914.42
2023-04-04T11:11:22.422Z,99913.95
2023-04-04T11:13:59.682Z,99918.02
2023-04-04T11:15:06.830Z,99927.95
2023-04-04T11:16:13.446Z,99920.38
2023-04-04T11:17:16.382Z,99921.15
2023-04-04T11:18:31.587Z,99922.69
2023-04-04T11:19:25.482Z,99929.02
2023-04-04T11:20:35.215Z,99922.22
2023-04-04T11:21:37.298Z,99917.42
2023-04-04T11:22:41.200Z,99917.42
2023-04-04T11:23:52.921Z,99920.20
2023-04-04T11:25:00.694Z,99919.73
2023-04-04T11:26:03.226Z,99922.52
2023-04-04T11:27:06.311Z,99923.28
2023-04-04T11:28:14.496Z,99926.06
2023-04-04T11:29:21.798Z,99926.06
2023-04-04T11:30:26.975Z,99923.28
2023-04-04T11:31:42.731Z,99940.73
2023-04-04T11:33:03.916Z,99924.05
2023-04-04T11:34:08.434Z,99920.50
2023-04-04T11:35:10.441Z,99930.86
2023-04-04T11:36:33.996Z,99930.09
2023-04-04T11:37:55.727Z,99930.09
2023-04-04T11:38:57.818Z,99928.55
2023-04-04T11:40:00.141Z,99928.55
2023-04-04T11:41:02.475Z,99928.55
2023-04-04T11:42:13.719Z,99931.33
2023-04-04T11:43:15.910Z,99926.53
2023-04-04T11:44:19.570Z,99930.86
2023-04-04T11:45:21.614Z,99931.63
2023-04-04T11:46:23.803Z,99929.62
2023-04-04T11:47:25.844Z,99927.61
2023-04-04T11:48:28.135Z,99926.84
2023-04-04T11:49:30.404Z,99920.03
2023-04-04T11:50:38.813Z,99915.72
2023-04-04T11:51:41.391Z,99911.69
2023-04-04T11:52:43.376Z,99923.58
2023-04-04T11:53:46.707Z,99926.36
2023-04-04T11:54:49.876Z,99923.11
2023-04-04T11:55:52.585Z,99929.44
2023-04-04T11:56:55.966Z,99925.42
2023-04-04T11:59:18.888Z,99923.92
2023-04-04T12:00:31.614Z,99927.25
2023-04-04T12:01:33.735Z,99925.98
2023-04-04T12:02:36.238Z,99924.74
2023-04-04T12:03:38.589Z,99924.74
2023-04-04T12:04:43.746Z,99920.72
2023-04-04T12:05:45.900Z,99920.72
2023-04-04T12:06:55.408Z,99915.16
2023-04-04T12:07:58.008Z,99917.94
2023-04-04T12:09:01.150Z,99909.13
2023-04-04T12:10:04.665Z,99913.92
2023-04-04T12:11:07.833Z,99913.92
2023-04-04T12:12:14.061Z,99913.15
2023-04-04T12:13:16.080Z,99916.70
2023-04-04T12:14:18.963Z,99924.57
2023-04-04T12:15:22.931Z,99915.45
2023-04-04T12:16:27.099Z,99923.80
2023-04-04T12:17:29.128Z,99924.57
2023-04-04T12:18:32.574Z,99921.78
2023-04-04T12:19:38.722Z,99919.77
2023-04-04T12:20:41.054Z,99926.11
2023-04-04T12:21:43.519Z,99921.78
2023-04-04T12:22:51.297Z,99919.48
2023-04-04T12:23:57.265Z,99926.58
2023-04-04T12:25:02.579Z,99921.48
2023-04-04T12:26:04.963Z,99925.04
2023-04-04T12:27:07.244Z,99920.72
2023-04-04T12:28:10.298Z,99921.96
2023-04-04T12:29:13.194Z,99923.20
2023-04-04T12:30:16.867Z,99928.77
2023-04-04T12:31:18.933Z,99920.42
2023-04-04T12:32:22.125Z,99920.42
2023-04-04T12:33:24.327Z,99918.41
2023-04-04T12:35:32.629Z,99917.94
2023-04-04T12:36:37.437Z,99923.50
2023-04-04T12:37:39.508Z,99915.16
2023-04-04T12:38:59.376Z,99921.48
2023-04-04T12:40:01.263Z,99913.15
2023-04-04T12:41:03.796Z,99913.92
2023-04-04T12:42:06.142Z,99910.37
2023-04-04T12:43:08.280Z,99908.36
2023-04-04T12:44:10.586Z,99905.58
2023-04-04T12:45:13.622Z,99902.32
2023-04-04T12:46:16.751Z,99898.30
2023-04-04T12:47:19.759Z,99897.53
2023-04-04T12:48:27.156Z,99897.05